Time;durP1;ratioP1;P1;durP2;ratioP2;P2;SDS_P1;SDS_P2;PMS_P1;PMS_P2;Temp;Humidity;BMP_temperature;BMP_pressure;BME280_temperature;BME280_humidity;BME280_pressure;Samples;Min_cycle;Max_cycle;Signal;HPM_P1;HPM_P2
2022/02/15 00:00:58;;;;;;;8.00;1.25;;;3.10;88.20;;;;;;5013179;28;20065;-73
2022/02/15 00:03:26;;;;;;;11.95;1.80;;;3.00;88.20;;;;;;5012900;28;20625;-72
2022/02/15 00:05:54;;;;;;;6.75;1.05;;;3.00;88.20;;;;;;5013041;28;20046;-72
2022/02/15 00:08:24;;;;;;;9.65;1.65;;;3.00;88.20;;;;;;5011950;28;20070;-72
2022/02/15 00:10:52;;;;;;;12.23;2.13;;;2.90;88.00;;;;;;5011591;28;20050;-72
2022/02/15 00:13:19;;;;;;;7.15;1.20;;;2.90;87.90;;;;;;5030937;28;20059;-72
2022/02/15 00:15:47;;;;;;;8.23;1.48;;;2.80;87.90;;;;;;5031993;28;20045;-73
2022/02/15 00:18:15;;;;;;;14.93;1.70;;;2.70;88.00;;;;;;5032456;28;20056;-73
2022/02/15 00:20:44;;;;;;;11.45;1.10;;;2.60;88.20;;;;;;5025260;28;20053;-72
2022/02/15 00:23:11;;;;;;;6.85;1.05;;;2.50;88.30;;;;;;5012641;28;20037;-72
2022/02/15 00:25:39;;;;;;;9.45;1.20;;;2.50;88.40;;;;;;5016222;28;20045;-72
2022/02/15 00:28:06;;;;;;;10.00;1.00;;;2.40;88.50;;;;;;5032367;28;20045;-71
2022/02/15 00:30:34;;;;;;;7.20;1.40;;;2.40;88.50;;;;;;5018706;28;20053;-72
2022/02/15 00:33:03;;;;;;;3.83;0.98;;;2.50;88.40;;;;;;5012385;28;20046;-72
2022/02/15 00:35:31;;;;;;;3.95;1.13;;;2.50;88.30;;;;;;5018880;28;20049;-72
2022/02/15 00:37:58;;;;;;;6.72;1.10;;;2.50;88.20;;;;;;5032198;28;20041;-72
2022/02/15 00:40:26;;;;;;;3.17;0.80;;;2.60;87.90;;;;;;5021616;28;20050;-72
2022/02/15 00:42:53;;;;;;;9.18;1.10;;;2.60;87.70;;;;;;5011393;28;20038;-72
2022/02/15 00:45:21;;;;;;;6.55;1.20;;;2.70;87.50;;;;;;5016897;28;20041;-72
2022/02/15 00:47:49;;;;;;;9.68;1.20;;;2.70;87.40;;;;;;5029173;28;20053;-72
2022/02/15 00:50:17;;;;;;;6.45;1.10;;;2.70;87.20;;;;;;5026288;28;20038;-72
2022/02/15 00:52:45;;;;;;;3.50;1.00;;;2.70;87.20;;;;;;5012306;28;20054;-72
2022/02/15 00:55:14;;;;;;;6.03;1.15;;;2.60;87.20;;;;;;5015506;28;20053;-72
2022/02/15 00:57:42;;;;;;;13.95;1.27;;;2.50;87.40;;;;;;5030993;28;20385;-72
2022/02/15 01:00:11;;;;;;;7.05;1.45;;;2.50;87.50;;;;;;5030854;28;20049;-72
2022/02/15 01:02:39;;;;;;;6.72;1.35;;;2.50;87.90;;;;;;5021097;28;20045;-72
2022/02/15 01:05:07;;;;;;;6.00;1.10;;;2.50;88.00;;;;;;4999861;28;20049;-72
2022/02/15 01:07:38;;;;;;;3.45;1.10;;;2.50;88.00;;;;;;5026333;28;20055;-72
2022/02/15 01:10:06;;;;;;;8.95;1.05;;;2.50;88.10;;;;;;5049833;28;20056;-72
2022/02/15 01:12:34;;;;;;;6.00;0.82;;;2.50;88.10;;;;;;5040922;28;20042;-73
2022/02/15 01:15:02;;;;;;;5.45;1.13;;;2.50;88.20;;;;;;5018635;28;20078;-72
2022/02/15 01:17:30;;;;;;;7.40;1.02;;;2.50;88.20;;;;;;5028887;28;20052;-72
2022/02/15 01:19:58;;;;;;;8.05;1.25;;;2.50;88.40;;;;;;5042190;28;20057;-71
2022/02/15 01:22:25;;;;;;;6.07;1.00;;;2.60;88.50;;;;;;5010724;28;20117;-71
2022/02/15 01:24:53;;;;;;;3.00;1.00;;;2.60;88.50;;;;;;5027538;28;20492;-71
2022/02/15 01:30:26;;;;;;;9.05;1.48;;;2.50;88.50;;;;;;5182103;23;20062;-72
2022/02/15 01:32:53;;;;;;;6.40;0.93;;;2.50;88.50;;;;;;4972879;28;20488;-72
2022/02/15 01:35:21;;;;;;;8.80;1.05;;;2.50;88.70;;;;;;5008738;28;20050;-72
2022/02/15 01:37:49;;;;;;;4.03;0.90;;;2.40;88.90;;;;;;4995070;28;20058;-72
2022/02/15 01:40:19;;;;;;;6.18;0.95;;;2.40;89.00;;;;;;4994594;28;20046;-72
2022/02/15 01:42:47;;;;;;;8.15;1.05;;;2.50;89.00;;;;;;4979039;28;20049;-72
2022/02/15 01:45:17;;;;;;;5.93;0.90;;;2.50;89.00;;;;;;5010592;28;20050;-72
2022/02/15 01:47:46;;;;;;;6.30;1.05;;;2.50;89.00;;;;;;4994960;28;20061;-72
2022/02/15 01:50:15;;;;;;;10.00;1.10;;;2.50;89.00;;;;;;4994506;28;20044;-72
2022/02/15 01:52:43;;;;;;;7.55;1.13;;;2.50;89.00;;;;;;4995981;28;20069;-72
2022/02/15 01:55:13;;;;;;;9.65;1.70;;;2.50;89.10;;;;;;4978251;28;20046;-72
2022/02/15 01:57:40;;;;;;;8.88;1.08;;;2.60;89.00;;;;;;4994674;28;20053;-72
2022/02/15 02:00:37;;;;;;;7.82;1.17;;;2.60;88.90;;;;;;4994323;28;20042;-72
2022/02/15 02:03:16;;;;;;;4.82;0.95;;;2.50;88.80;;;;;;4978257;28;20050;-72
2022/02/15 02:05:48;;;;;;;12.80;1.75;;;2.50;88.80;;;;;;4994285;28;20108;-72
2022/02/15 02:08:26;;;;;;;6.30;1.10;;;2.50;88.80;;;;;;4994574;28;20049;-72
2022/02/15 02:10:55;;;;;;;5.03;0.90;;;2.40;88.90;;;;;;4994174;28;20049;-72
2022/02/15 02:13:38;;;;;;;9.82;1.00;;;2.40;88.80;;;;;;4994155;28;20057;-72
2022/02/15 02:16:09;;;;;;;5.65;1.08;;;2.40;88.80;;;;;;4994389;28;20050;-73
2022/02/15 02:19:01;;;;;;;5.73;0.97;;;2.40;88.70;;;;;;4993920;28;20043;-72
2022/02/15 02:21:35;;;;;;;8.23;1.45;;;2.40;88.70;;;;;;5009360;28;20050;-72
2022/02/15 02:24:04;;;;;;;4.13;0.90;;;2.30;88.70;;;;;;4994217;28;20050;-72
2022/02/15 02:26:32;;;;;;;3.38;0.73;;;2.30;88.80;;;;;;4993967;28;20042;-72
2022/02/15 02:29:02;;;;;;;8.23;1.20;;;2.30;88.80;;;;;;4994749;28;20041;-72
2022/02/15 02:31:34;;;;;;;7.25;1.23;;;2.30;88.80;;;;;;5021066;28;20046;-72
2022/02/15 02:34:06;;;;;;;5.85;1.30;;;2.30;88.80;;;;;;4993728;28;20062;-72
2022/02/15 02:36:45;;;;;;;5.38;1.13;;;2.30;88.90;;;;;;4995167;28;20057;-72
2022/02/15 02:39:16;;;;;;;6.15;1.00;;;2.30;88.90;;;;;;4994113;28;20509;-72
2022/02/15 02:41:46;;;;;;;5.60;0.95;;;2.30;89.10;;;;;;5008648;28;20046;-71
2022/02/15 02:44:14;;;;;;;12.95;1.52;;;2.30;89.00;;;;;;4993002;28;20058;-72
2022/02/15 02:46:44;;;;;;;9.02;1.00;;;2.30;89.00;;;;;;4991985;28;20447;-72
2022/02/15 02:49:12;;;;;;;6.13;1.35;;;2.30;88.90;;;;;;4991524;28;20046;-72
2022/02/15 02:51:41;;;;;;;8.82;1.27;;;2.30;89.00;;;;;;4991769;28;20042;-71
2022/02/15 02:54:09;;;;;;;12.82;1.40;;;2.30;89.10;;;;;;4991659;28;20056;-71
2022/02/15 02:56:45;;;;;;;10.68;1.30;;;2.30;89.10;;;;;;4992858;28;20050;-72
2022/02/15 02:59:15;;;;;;;13.38;1.42;;;2.30;89.10;;;;;;4993628;28;20042;-72
2022/02/15 03:01:43;;;;;;;9.73;1.23;;;2.30;89.10;;;;;;4993292;28;20046;-72
2022/02/15 03:04:11;;;;;;;9.52;1.42;;;2.30;89.10;;;;;;4993528;28;20047;-72
2022/02/15 03:06:39;;;;;;;12.48;1.88;;;2.30;89.20;;;;;;4993537;28;20042;-72
2022/02/15 03:09:08;;;;;;;6.03;1.27;;;2.20;89.20;;;;;;4977069;28;20134;-72
2022/02/15 03:11:35;;;;;;;5.90;1.15;;;2.30;89.20;;;;;;4993138;28;20408;-72
2022/02/15 03:14:03;;;;;;;5.68;1.30;;;2.20;89.20;;;;;;4977080;28;20051;-72
2022/02/15 03:16:41;;;;;;;5.10;1.20;;;2.10;89.30;;;;;;4993375;28;20065;-72
2022/02/15 03:19:09;;;;;;;10.95;1.40;;;2.10;89.30;;;;;;4977554;28;20062;-72
2022/02/15 03:21:37;;;;;;;8.20;1.10;;;2.00;89.50;;;;;;4977058;28;20077;-72
2022/02/15 03:24:05;;;;;;;8.85;1.30;;;2.10;89.70;;;;;;4977058;28;20050;-72
2022/02/15 03:26:33;;;;;;;7.68;1.40;;;2.10;89.70;;;;;;4979664;28;20050;-73
2022/02/15 03:29:01;;;;;;;7.28;1.15;;;2.10;89.70;;;;;;5012667;28;20057;-72
2022/02/15 03:31:29;;;;;;;8.88;1.20;;;2.10;89.60;;;;;;5012350;28;20507;-72
2022/02/15 03:33:58;;;;;;;8.82;1.50;;;2.20;89.70;;;;;;5012544;28;20038;-72
2022/02/15 03:36:28;;;;;;;12.82;1.45;;;2.20;89.70;;;;;;5007987;28;20080;-72
2022/02/15 03:39:08;;;;;;;14.40;1.98;;;2.20;89.70;;;;;;4989519;28;20058;-72
2022/02/15 03:44:27;;;;;;;11.90;1.13;;;2.20;89.50;;;;;;4989401;28;20620;-72
2022/02/15 03:47:00;;;;;;;;;;;2.20;89.50;;;;;;4989887;28;20054;-72
2022/02/15 03:49:35;;;;;;;9.43;1.15;;;2.20;89.60;;;;;;4973174;28;20286;-72
2022/02/15 03:52:03;;;;;;;6.20;1.27;;;2.20;89.60;;;;;;4972191;28;20054;-72
2022/02/15 03:54:31;;;;;;;5.18;1.00;;;2.20;89.60;;;;;;4972224;28;20061;-73
2022/02/15 03:56:59;;;;;;;7.43;0.98;;;2.20;89.60;;;;;;4972710;28;20054;-72
2022/02/15 03:59:29;;;;;;;6.63;1.10;;;2.20;89.60;;;;;;4973155;28;20051;-72
2022/02/15 04:01:57;;;;;;;9.55;1.10;;;2.30;89.70;;;;;;4988978;28;20047;-72
2022/02/15 04:04:27;;;;;;;7.35;1.10;;;2.30;89.70;;;;;;4972961;28;20047;-72
2022/02/15 04:06:55;;;;;;;8.32;1.10;;;2.40;89.70;;;;;;4989250;28;20427;-72
2022/02/15 04:09:24;;;;;;;8.77;1.20;;;2.50;89.60;;;;;;4998285;28;20046;-73
2022/02/15 04:11:52;;;;;;;14.55;1.63;;;2.50;89.50;;;;;;5011811;28;20042;-73
2022/02/15 04:14:25;;;;;;;10.57;1.00;;;2.60;89.50;;;;;;4999582;28;20415;-72
2022/02/15 04:16:53;;;;;;;17.38;1.80;;;2.70;89.40;;;;;;4973991;28;20069;-72
2022/02/15 04:19:21;;;;;;;8.30;1.25;;;2.80;89.30;;;;;;4990539;28;20074;-72
2022/02/15 04:21:49;;;;;;;6.50;0.90;;;2.80;89.30;;;;;;4995815;28;20041;-72
2022/02/15 04:24:16;;;;;;;7.53;1.13;;;2.80;89.10;;;;;;5011302;28;20046;-72
2022/02/15 04:26:45;;;;;;;14.02;1.33;;;2.90;89.10;;;;;;4990798;28;20058;-73
2022/02/15 04:29:14;;;;;;;6.13;1.23;;;2.90;89.10;;;;;;4990895;28;20046;-72
2022/02/15 04:31:51;;;;;;;4.90;0.80;;;2.90;89.20;;;;;;4975703;28;20423;-73
2022/02/15 04:34:20;;;;;;;6.65;0.95;;;3.00;89.20;;;;;;4975577;28;20050;-72
2022/02/15 04:36:49;;;;;;;5.85;1.15;;;3.00;89.20;;;;;;4991949;28;20051;-72
2022/02/15 04:39:17;;;;;;;11.15;1.30;;;3.10;89.10;;;;;;4991737;28;20487;-73
2022/02/15 04:41:59;;;;;;;6.53;1.20;;;3.20;89.10;;;;;;4991827;28;20480;-72
2022/02/15 04:44:26;;;;;;;8.85;1.10;;;3.30;89.10;;;;;;4975634;28;20049;-72
2022/02/15 04:46:55;;;;;;;9.88;1.45;;;3.30;89.00;;;;;;5003704;28;20046;-73
2022/02/15 04:49:23;;;;;;;8.85;1.23;;;3.30;89.00;;;;;;4991708;28;20038;-72
2022/02/15 04:51:51;;;;;;;16.70;1.20;;;3.30;89.00;;;;;;4991650;28;20057;-72
2022/02/15 04:54:20;;;;;;;11.15;1.20;;;3.30;89.00;;;;;;4992587;28;20038;-72
2022/02/15 04:56:49;;;;;;;11.82;1.05;;;3.30;89.00;;;;;;4991115;28;20046;-72
2022/02/15 04:59:18;;;;;;;8.68;0.90;;;3.30;89.00;;;;;;4975431;28;20046;-72
2022/02/15 05:01:47;;;;;;;9.55;0.95;;;3.40;89.00;;;;;;4999526;28;20046;-73
2022/02/15 05:07:09;;;;;;;5.40;0.90;;;3.40;89.00;;;;;;5010807;28;20042;-72
2022/02/15 05:09:41;;;;;;;10.32;1.42;;;3.50;88.90;;;;;;5012980;28;20061;-73
2022/02/15 05:12:12;;;;;;;14.00;1.30;;;3.50;89.00;;;;;;5015298;28;20038;-72
2022/02/15 05:14:40;;;;;;;5.80;1.27;;;3.50;88.90;;;;;;5015447;28;20054;-72
2022/02/15 05:17:10;;;;;;;9.80;1.23;;;3.50;88.90;;;;;;5015125;28;20046;-73
2022/02/15 05:19:41;;;;;;;5.85;1.10;;;3.50;89.00;;;;;;5015143;28;20038;-72
2022/02/15 05:22:09;;;;;;;9.90;1.55;;;3.50;89.00;;;;;;5014898;28;20385;-72
2022/02/15 05:24:53;;;;;;;10.90;1.75;;;3.50;89.10;;;;;;5009781;28;20061;-72
2022/02/15 05:27:26;;;;;;;15.27;1.77;;;3.50;89.10;;;;;;4996467;28;20054;-73
2022/02/15 05:29:58;;;;;;;8.68;1.40;;;3.50;89.10;;;;;;4994693;28;20487;-72
2022/02/15 05:32:31;;;;;;;9.43;1.67;;;3.50;89.20;;;;;;4995283;28;20047;-73
2022/02/15 05:35:02;;;;;;;12.45;1.45;;;3.40;89.20;;;;;;4978860;28;20050;-72
2022/02/15 05:37:34;;;;;;;11.60;1.40;;;3.40;89.30;;;;;;4995054;28;20051;-73
2022/02/15 05:40:05;;;;;;;11.75;1.42;;;3.40;89.40;;;;;;4994940;28;20050;-72
2022/02/15 05:42:43;;;;;;;14.77;1.40;;;3.40;89.40;;;;;;4995062;28;20053;-72
2022/02/15 05:45:12;;;;;;;8.93;1.75;;;3.30;89.50;;;;;;4995028;28;20054;-72
2022/02/15 05:47:58;;;;;;;9.07;1.58;;;3.30;89.60;;;;;;4994397;28;20058;-73
2022/02/15 05:53:24;;;;;;;9.43;1.23;;;3.40;89.70;;;;;;4994874;28;20051;-72
2022/02/15 05:55:56;;;;;;;9.93;1.63;;;3.50;89.90;;;;;;4994776;28;20058;-72
2022/02/15 05:58:29;;;;;;;8.32;1.75;;;3.60;90.00;;;;;;5006694;28;20480;-73
2022/02/15 06:00:57;;;;;;;10.27;1.38;;;3.60;90.00;;;;;;4999876;28;20557;-73
2022/02/15 06:06:16;;;;;;;8.50;1.27;;;3.70;90.00;;;;;;4978179;28;20054;-73
2022/02/15 06:08:44;;;;;;;4.15;1.45;;;3.80;90.00;;;;;;4992632;28;20045;-73
2022/02/15 06:11:13;;;;;;;13.00;1.23;;;3.80;90.10;;;;;;4993249;28;20069;-72
2022/02/15 06:13:47;;;;;;;7.78;1.25;;;3.80;90.10;;;;;;4992598;28;20046;-72
2022/02/15 06:16:16;;;;;;;12.57;1.80;;;3.90;90.20;;;;;;4992515;28;20050;-72
2022/02/15 06:18:59;;;;;;;10.52;1.10;;;3.90;90.10;;;;;;4982668;28;20053;-73
2022/02/15 06:21:32;;;;;;;13.68;1.92;;;4.00;90.10;;;;;;4995438;28;20060;-72
2022/02/15 06:24:04;;;;;;;11.93;1.65;;;4.00;90.10;;;;;;4980484;28;20053;-73
2022/02/15 06:27:02;;;;;;;15.07;1.42;;;4.00;90.10;;;;;;4989615;28;20037;-73
2022/02/15 06:29:31;;;;;;;14.98;1.88;;;4.10;90.10;;;;;;5003889;28;20037;-72
2022/02/15 06:32:05;;;;;;;12.05;1.60;;;4.10;90.20;;;;;;5000066;28;20073;-72
2022/02/15 06:34:33;;;;;;;11.10;2.15;;;4.20;90.20;;;;;;4993911;28;20046;-73
2022/02/15 06:37:07;;;;;;;17.85;2.30;;;4.20;90.20;;;;;;4993935;28;20042;-73
2022/02/15 06:39:40;;;;;;;9.52;1.83;;;4.20;90.20;;;;;;4994067;28;20496;-72
2022/02/15 06:42:09;;;;;;;10.82;1.65;;;4.30;90.20;;;;;;4995004;28;20069;-72
2022/02/15 06:44:42;;;;;;;9.73;1.83;;;4.30;90.30;;;;;;4993808;28;20507;-72
2022/02/15 06:47:09;;;;;;;11.60;1.83;;;4.30;90.30;;;;;;4993836;28;20053;-72
2022/02/15 06:49:37;;;;;;;8.43;1.30;;;4.30;90.30;;;;;;4993502;28;20041;-73
2022/02/15 06:52:20;;;;;;;8.93;1.40;;;4.30;90.30;;;;;;4977443;28;20057;-72
2022/02/15 06:54:59;;;;;;;6.03;1.23;;;4.30;90.30;;;;;;4993627;28;20038;-72
2022/02/15 06:57:33;;;;;;;8.70;1.30;;;4.30;90.30;;;;;;5006004;28;20042;-71
2022/02/15 07:00:02;;;;;;;11.07;1.80;;;4.30;90.40;;;;;;5013208;28;20037;-71
2022/02/15 07:02:30;;;;;;;10.35;2.00;;;4.40;90.40;;;;;;4999337;28;20050;-71
2022/02/15 07:04:58;;;;;;;14.15;1.70;;;4.40;90.50;;;;;;4993355;28;20394;-71
2022/02/15 07:07:26;;;;;;;10.15;1.90;;;4.40;90.50;;;;;;5004086;28;20046;-71
2022/02/15 07:09:55;;;;;;;10.38;1.77;;;4.40;90.60;;;;;;4993902;28;20053;-71
2022/02/15 07:12:44;;;;;;;11.52;1.60;;;4.40;90.60;;;;;;4977043;28;20416;-71
2022/02/15 07:15:18;;;;;;;9.45;1.60;;;4.50;90.80;;;;;;5002135;28;20503;-71
2022/02/15 07:17:50;;;;;;;7.43;1.63;;;4.50;90.80;;;;;;5002780;28;20421;-71
2022/02/15 07:20:24;;;;;;;7.35;1.50;;;4.50;90.80;;;;;;5001205;28;20042;-71
2022/02/15 07:22:51;;;;;;;12.23;1.90;;;4.50;90.80;;;;;;5001279;28;20054;-71
2022/02/15 07:25:37;;;;;;;10.82;1.95;;;4.60;90.90;;;;;;4992851;28;20046;-71
2022/02/15 07:28:40;;;;;;;14.00;2.08;;;4.60;91.20;;;;;;4953049;28;20047;-71
2022/02/15 07:31:08;;;;;;;10.43;2.05;;;4.70;91.30;;;;;;4919774;28;20055;-71
2022/02/15 07:33:36;;;;;;;9.00;1.90;;;4.70;91.30;;;;;;4936048;29;20409;-70
2022/02/15 07:36:04;;;;;;;6.45;2.03;;;4.80;91.40;;;;;;4936668;29;20051;-70
2022/02/15 07:38:32;;;;;;;11.30;2.25;;;4.80;91.40;;;;;;4953001;29;20066;-70
2022/02/15 07:41:00;;;;;;;9.57;2.13;;;4.80;91.60;;;;;;4952988;29;20472;-69
2022/02/15 07:43:27;;;;;;;11.27;2.85;;;4.90;91.60;;;;;;4952981;29;20055;-69
2022/02/15 07:46:03;;;;;;;12.73;3.22;;;4.90;91.60;;;;;;4943568;28;20526;-68
2022/02/15 07:48:32;;;;;;;10.40;2.83;;;4.90;91.60;;;;;;4968891;28;20432;-68
2022/02/15 07:50:59;;;;;;;7.32;2.42;;;4.90;91.80;;;;;;4953655;28;20059;-68
2022/02/15 07:53:27;;;;;;;10.52;3.45;;;5.00;91.90;;;;;;4958728;28;20062;-68
2022/02/15 07:55:54;;;;;;;11.48;3.40;;;5.00;91.90;;;;;;4965028;28;20063;-68
2022/02/15 07:58:22;;;;;;;9.98;3.25;;;5.00;92.00;;;;;;4968857;28;20500;-68
2022/02/15 08:00:50;;;;;;;19.95;3.88;;;5.00;92.00;;;;;;4951706;28;20540;-70
2022/02/15 08:03:19;;;;;;;10.48;3.50;;;5.00;92.00;;;;;;4982956;28;20065;-68
2022/02/15 08:05:47;;;;;;;15.48;4.45;;;5.00;92.00;;;;;;5002205;28;20053;-69
2022/02/15 08:08:17;;;;;;;12.68;4.57;;;5.10;92.10;;;;;;4976034;28;20070;-69
2022/02/15 08:10:47;;;;;;;11.25;4.78;;;5.20;92.10;;;;;;4993431;28;20050;-69
2022/02/15 08:13:21;;;;;;;12.13;5.40;;;5.20;92.20;;;;;;4992968;28;20049;-68
2022/02/15 08:15:50;;;;;;;11.00;4.90;;;5.20;92.20;;;;;;4990426;28;20042;-69
2022/02/15 08:18:18;;;;;;;12.18;3.90;;;5.20;92.20;;;;;;5000794;28;20483;-69
2022/02/15 08:20:47;;;;;;;9.57;4.82;;;5.30;92.20;;;;;;5002095;28;20419;-70
2022/02/15 08:23:16;;;;;;;11.93;4.90;;;5.30;92.20;;;;;;4991055;28;20050;-71
2022/02/15 08:25:43;;;;;;;13.32;3.80;;;5.30;92.20;;;;;;4992075;28;20489;-71
2022/02/15 08:28:13;;;;;;;11.10;3.97;;;5.30;92.40;;;;;;4991101;28;20054;-71
2022/02/15 08:30:41;;;;;;;13.55;4.15;;;5.40;92.40;;;;;;4990344;28;20507;-72
2022/02/15 08:33:09;;;;;;;3.33;2.50;;;5.40;92.40;;;;;;4992442;28;21825;-70
2022/02/15 08:35:36;;;;;;;9.15;3.80;;;5.50;92.50;;;;;;4992191;28;20054;-71
2022/02/15 08:38:04;;;;;;;10.98;3.50;;;5.60;92.50;;;;;;4992280;28;20484;-71
2022/02/15 08:40:32;;;;;;;9.43;3.50;;;5.60;92.50;;;;;;4992156;28;20046;-71
2022/02/15 08:42:59;;;;;;;8.88;3.55;;;5.70;92.50;;;;;;4974952;28;20050;-71
2022/02/15 08:45:27;;;;;;;8.85;3.42;;;5.70;92.50;;;;;;4991709;28;20480;-72
2022/02/15 08:47:55;;;;;;;6.53;2.80;;;5.70;92.50;;;;;;4991392;28;20058;-72
2022/02/15 08:50:22;;;;;;;6.22;2.38;;;5.80;92.50;;;;;;4991646;28;20420;-72
2022/02/15 08:52:50;;;;;;;5.05;1.58;;;5.80;92.50;;;;;;4992945;28;20051;-72
2022/02/15 08:55:18;;;;;;;7.60;1.40;;;5.90;92.50;;;;;;4992920;28;20050;-72
2022/02/15 08:57:45;;;;;;;4.40;1.00;;;5.90;92.50;;;;;;4991545;28;20054;-72
2022/02/15 09:00:14;;;;;;;2.05;0.65;;;6.00;92.40;;;;;;4992649;28;20170;-73
2022/02/15 09:02:42;;;;;;;2.03;0.73;;;6.20;92.30;;;;;;4991463;28;20073;-72
2022/02/15 09:05:09;;;;;;;1.83;0.50;;;6.30;91.90;;;;;;4992660;28;20047;-73
2022/02/15 09:07:37;;;;;;;2.75;0.40;;;6.50;91.20;;;;;;4992634;28;20038;-73
2022/02/15 09:10:06;;;;;;;1.73;0.35;;;6.70;90.60;;;;;;4992727;28;20054;-72
2022/02/15 09:12:33;;;;;;;3.10;0.55;;;6.80;89.90;;;;;;4992549;28;20511;-72
2022/02/15 09:15:02;;;;;;;1.60;0.40;;;6.90;89.50;;;;;;4992502;28;20042;-72
2022/02/15 09:17:36;;;;;;;0.40;0.10;;;6.90;89.40;;;;;;4992488;28;20061;-72
2022/02/15 09:20:06;;;;;;;1.67;0.20;;;7.00;89.30;;;;;;4992638;28;20487;-72
2022/02/15 09:22:33;;;;;;;1.63;0.32;;;7.00;89.10;;;;;;4992519;28;20054;-72
2022/02/15 09:25:01;;;;;;;2.97;0.22;;;7.00;88.90;;;;;;4991245;28;20046;-72
2022/02/15 09:27:29;;;;;;;0.70;0.43;;;7.00;88.90;;;;;;4992493;28;20057;-72
2022/02/15 09:29:56;;;;;;;1.35;0.30;;;7.00;88.90;;;;;;4991970;28;20054;-72
2022/02/15 09:32:25;;;;;;;2.13;0.17;;;7.00;88.90;;;;;;4991261;28;20053;-72
2022/02/15 09:34:52;;;;;;;0.82;0.20;;;7.00;88.90;;;;;;4992289;28;20054;-73
2022/02/15 09:37:20;;;;;;;1.75;0.40;;;7.00;88.80;;;;;;4992153;28;20058;-73
2022/02/15 09:39:48;;;;;;;1.75;0.30;;;7.00;88.70;;;;;;4992287;28;20046;-73
2022/02/15 09:42:16;;;;;;;0.80;0.20;;;7.00;88.70;;;;;;4992360;28;20057;-73
2022/02/15 09:44:46;;;;;;;1.40;0.40;;;7.00;88.70;;;;;;4990810;28;20391;-73
2022/02/15 09:47:21;;;;;;;3.22;0.45;;;7.00;88.80;;;;;;4990555;28;20042;-73
2022/02/15 09:49:50;;;;;;;0.35;0.20;;;7.00;88.90;;;;;;4989180;28;20447;-74
2022/02/15 09:52:20;;;;;;;1.23;0.30;;;7.00;88.80;;;;;;4990367;28;20057;-73
2022/02/15 09:54:50;;;;;;;1.33;0.30;;;7.10;88.80;;;;;;4990800;28;20047;-73
2022/02/15 09:57:22;;;;;;;2.95;0.35;;;7.10;88.80;;;;;;4992656;28;20046;-73
2022/02/15 09:59:51;;;;;;;1.63;0.30;;;7.10;88.70;;;;;;4995214;28;20050;-73
2022/02/15 10:02:23;;;;;;;3.03;0.40;;;7.10;88.80;;;;;;4994461;28;20292;-74
2022/02/15 10:04:55;;;;;;;1.83;0.50;;;7.10;88.90;;;;;;4995785;28;20046;-74
2022/02/15 10:07:24;;;;;;;1.50;0.40;;;7.10;88.90;;;;;;4995814;28;20054;-73
2022/02/15 10:09:55;;;;;;;1.05;0.60;;;7.10;89.00;;;;;;4995259;28;20054;-73
2022/02/15 10:12:28;;;;;;;1.05;0.40;;;7.10;89.20;;;;;;4993862;28;20047;-74
2022/02/15 10:14:57;;;;;;;2.33;0.70;;;7.10;89.20;;;;;;4995541;28;20054;-73
2022/02/15 10:17:24;;;;;;;2.40;0.75;;;7.10;89.20;;;;;;4994140;28;20678;-74
2022/02/15 10:19:55;;;;;;;2.17;0.75;;;7.20;89.20;;;;;;4995309;28;20053;-73
2022/02/15 10:22:24;;;;;;;1.98;0.70;;;7.20;89.10;;;;;;4991937;28;20050;-74
2022/02/15 10:24:53;;;;;;;1.70;0.52;;;7.20;89.10;;;;;;4997610;28;20484;-74
2022/02/15 10:27:30;;;;;;;4.78;0.60;;;7.30;88.90;;;;;;4993349;28;20046;-74
2022/02/15 10:30:03;;;;;;;2.92;0.73;;;7.30;88.90;;;;;;5009407;28;20392;-75
2022/02/15 10:32:31;;;;;;;5.50;1.00;;;7.30;88.80;;;;;;5004121;28;20058;-73
2022/02/15 10:35:00;;;;;;;5.15;1.00;;;7.30;88.90;;;;;;4998988;28;20050;-73
2022/02/15 10:37:32;;;;;;;2.42;0.70;;;7.30;88.90;;;;;;4993797;28;20050;-73
2022/02/15 10:40:04;;;;;;;5.53;0.82;;;7.40;88.80;;;;;;4993917;28;20050;-73
2022/02/15 10:42:32;;;;;;;7.03;1.25;;;7.40;88.70;;;;;;4983346;28;20054;-73
2022/02/15 10:45:08;;;;;;;6.43;1.00;;;7.50;88.70;;;;;;4975522;28;20503;-73
2022/02/15 10:47:38;;;;;;;4.80;0.70;;;7.50;88.50;;;;;;4990044;28;20046;-72
2022/02/15 10:50:09;;;;;;;7.97;1.20;;;7.60;88.40;;;;;;5014427;28;20517;-72
2022/02/15 10:52:37;;;;;;;7.28;0.80;;;7.60;88.10;;;;;;5010123;28;20050;-72
2022/02/15 10:55:06;;;;;;;3.95;0.95;;;7.60;87.90;;;;;;4993688;28;20042;-72
2022/02/15 10:57:36;;;;;;;6.13;1.10;;;7.70;87.70;;;;;;4994660;28;20049;-72
2022/02/15 11:00:11;;;;;;;4.53;1.02;;;7.70;87.60;;;;;;4994730;28;20049;-73
2022/02/15 11:02:40;;;;;;;3.85;0.80;;;7.70;87.50;;;;;;4994618;28;20049;-72
2022/02/15 11:05:11;;;;;;;5.53;0.75;;;7.70;87.30;;;;;;4994581;28;20498;-72
2022/02/15 11:07:40;;;;;;;4.63;0.77;;;7.70;86.20;;;;;;4992396;28;20065;-72
2022/02/15 11:10:14;;;;;;;9.57;1.25;;;7.70;85.50;;;;;;4992461;28;20043;-73
2022/02/15 11:12:44;;;;;;;6.20;0.98;;;7.80;85.10;;;;;;4993170;28;20050;-73
2022/02/15 11:15:18;;;;;;;6.50;1.10;;;7.80;85.00;;;;;;4994052;28;20388;-72
2022/02/15 11:17:54;;;;;;;7.50;1.50;;;7.90;84.70;;;;;;4994230;28;20087;-73
2022/02/15 11:20:27;;;;;;;7.13;1.20;;;7.90;84.60;;;;;;4994326;28;20507;-73
2022/02/15 11:22:57;;;;;;;6.22;1.27;;;8.00;84.50;;;;;;4993102;28;20050;-73
2022/02/15 11:25:41;;;;;;;3.15;0.82;;;8.10;84.40;;;;;;4991317;28;20066;-73
2022/02/15 11:28:14;;;;;;;10.55;1.00;;;8.20;84.00;;;;;;4992240;28;20057;-73
2022/02/15 11:30:51;;;;;;;3.17;0.63;;;8.30;83.60;;;;;;4977345;28;20050;-73
2022/02/15 11:33:24;;;;;;;6.57;1.33;;;8.40;83.30;;;;;;5004427;28;20396;-73
2022/02/15 11:35:54;;;;;;;8.77;2.10;;;8.50;83.30;;;;;;4990823;28;20514;-73
2022/02/15 11:38:25;;;;;;;7.40;0.93;;;8.60;83.30;;;;;;4991975;28;20050;-73
2022/02/15 11:41:12;;;;;;;7.57;1.30;;;8.60;83.20;;;;;;4991368;28;20050;-74
2022/02/15 11:43:40;;;;;;;9.13;1.65;;;8.60;83.30;;;;;;5008287;28;20069;-73
2022/02/15 11:46:08;;;;;;;5.53;1.30;;;8.60;83.60;;;;;;4997262;28;20050;-73
2022/02/15 11:48:44;;;;;;;9.95;1.70;;;8.60;83.90;;;;;;4992077;28;20411;-74
2022/02/15 11:51:20;;;;;;;9.25;1.80;;;8.70;83.60;;;;;;4993606;28;20488;-74
2022/02/15 11:53:54;;;;;;;8.10;1.67;;;8.80;83.40;;;;;;4993132;28;20050;-73
2022/02/15 11:56:22;;;;;;;8.77;1.50;;;8.90;83.00;;;;;;4993681;28;20054;-73
2022/02/15 11:58:52;;;;;;;5.57;1.35;;;9.00;83.20;;;;;;4993246;28;20050;-73
2022/02/15 12:01:28;;;;;;;8.02;1.88;;;9.10;83.00;;;;;;4992751;28;20066;-73
2022/02/15 12:03:58;;;;;;;9.75;2.17;;;9.30;82.60;;;;;;4993488;28;20523;-73
2022/02/15 12:06:41;;;;;;;6.45;1.35;;;9.30;82.70;;;;;;4993211;28;20045;-74
2022/02/15 12:09:10;;;;;;;48.10;2.40;;;9.40;81.20;;;;;;4992507;28;20042;-73
2022/02/15 12:11:46;;;;;;;17.75;1.70;;;9.40;80.30;;;;;;4993055;28;20054;-73
2022/02/15 12:14:16;;;;;;;6.82;1.52;;;9.30;80.20;;;;;;4992732;28;20050;-74
2022/02/15 12:17:02;;;;;;;8.60;1.73;;;9.30;80.40;;;;;;4992842;28;20038;-74
2022/02/15 12:19:33;;;;;;;7.05;1.40;;;9.40;80.10;;;;;;4992107;28;20399;-74
2022/02/15 12:22:10;;;;;;;11.38;2.00;;;9.30;79.70;;;;;;4992939;28;20046;-74
2022/02/15 12:24:39;;;;;;;14.43;2.00;;;9.30;79.50;;;;;;4992003;28;20054;-75
2022/02/15 12:27:07;;;;;;;15.35;1.55;;;9.30;79.10;;;;;;4992940;28;20510;-73
2022/02/15 12:29:36;;;;;;;15.43;2.20;;;9.30;79.20;;;;;;4991648;28;20061;-74
2022/02/15 12:32:06;;;;;;;12.82;1.83;;;9.30;79.40;;;;;;4993013;28;20038;-74
2022/02/15 12:34:34;;;;;;;9.23;1.92;;;9.30;79.40;;;;;;4991894;28;20053;-74
2022/02/15 12:37:02;;;;;;;17.58;2.92;;;9.30;79.20;;;;;;4992678;28;20053;-74
2022/02/15 12:39:32;;;;;;;19.42;3.05;;;9.30;77.10;;;;;;4990670;28;20053;-73
2022/02/15 12:42:00;;;;;;;20.02;3.28;;;9.30;76.80;;;;;;4987554;28;20051;-73
2022/02/15 12:44:27;;;;;;;20.13;3.55;;;9.30;76.30;;;;;;4992734;28;20050;-73
2022/02/15 12:46:55;;;;;;;15.98;3.22;;;9.30;76.00;;;;;;4991029;28;20065;-72
2022/02/15 12:49:23;;;;;;;30.20;4.18;;;9.30;76.20;;;;;;4992812;28;20053;-73
2022/02/15 12:51:51;;;;;;;26.23;3.50;;;9.30;76.10;;;;;;4992569;28;20049;-72
2022/02/15 12:54:20;;;;;;;25.85;3.30;;;9.30;75.00;;;;;;4990871;28;20061;-72
2022/02/15 12:56:48;;;;;;;23.70;3.55;;;9.30;75.00;;;;;;4991454;28;20049;-73
2022/02/15 12:59:24;;;;;;;24.15;3.70;;;9.30;74.80;;;;;;4991696;28;20042;-73
2022/02/15 13:01:59;;;;;;;25.27;3.90;;;9.20;74.80;;;;;;4990311;28;20161;-73
2022/02/15 13:04:29;;;;;;;21.80;3.72;;;9.20;74.40;;;;;;4991150;28;20054;-72
2022/02/15 13:06:56;;;;;;;42.67;4.18;;;9.10;74.60;;;;;;4990275;28;20220;-73
2022/02/15 13:09:31;;;;;;;29.73;3.65;;;9.10;74.40;;;;;;4989937;28;20142;-73
2022/02/15 13:12:04;;;;;;;21.48;3.50;;;9.10;74.40;;;;;;4994316;28;20042;-73
2022/02/15 13:14:32;;;;;;;18.00;3.30;;;9.10;74.00;;;;;;4990891;28;20521;-73
2022/02/15 13:17:02;;;;;;;25.58;4.68;;;9.10;74.20;;;;;;4991021;28;20046;-72
2022/02/15 13:19:34;;;;;;;24.65;3.88;;;9.00;74.40;;;;;;4990971;28;20053;-73
2022/02/15 13:22:14;;;;;;;28.02;4.93;;;9.00;74.60;;;;;;4991381;28;20038;-72
2022/02/15 13:24:57;;;;;;;37.80;3.90;;;8.90;74.80;;;;;;4973167;28;20055;-73